This is the latest recevied weather packets stored in our database for station/object F6BIJ-13. If no packets are shown the sender has not sent any weather packets the latest 10 day(s).
| Time | Temp. | Humidity | Pressure | Rain* | Wind** | Luminosity | Snow |
|---|---|---|---|---|---|---|---|
| 1777993237 | 17.22° C | 80% | 1010.4 hPa | 0 mm | - | - | - |
| 1777992877 | 17.22° C | 79% | 1010.4 hPa | 0 mm | - | - | - |
| 1777992516 | 17.22° C | 79% | 1010.3 hPa | 0 mm | - | - | - |
| 1777992157 | 17.22° C | 79% | 1010.5 hPa | 0 mm | - | - | - |
| 1777991797 | 17.22° C | 81% | 1010.7 hPa | 0 mm | - | - | - |
| 1777991437 | 16.67° C | 81% | 1010.6 hPa | 0 mm | - | - | - |
| 1777991077 | 16.67° C | 81% | 1010.7 hPa | 0 mm | - | - | - |
| 1777990717 | 17.22° C | 80% | 1010.7 hPa | 0 mm | - | - | - |
| 1777990357 | 17.22° C | 79% | 1010.7 hPa | 0 mm | - | - | - |
| 1777989997 | 17.22° C | 78% | 1010.8 hPa | 0 mm | - | - | - |
| 1777989637 | 17.22° C | 77% | 1010.9 hPa | 0 mm | - | - | - |
| 1777989276 | 17.78° C | 77% | 1010.9 hPa | 0 mm | - | - | - |
| 1777988917 | 18.33° C | 76% | 1010.9 hPa | 0 mm | - | - | - |
| 1777988557 | 19.44° C | 74% | 1011 hPa | 0 mm | - | - | - |
| 1777988197 | 19.44° C | 70% | 1011.1 hPa | 0 mm | - | - | - |
| 1777987837 | 20° C | 71% | 1011 hPa | 0 mm | - | - | - |
| 1777987477 | 19.44° C | 75% | 1011.1 hPa | 0 mm | - | - | - |
| 1777987117 | 17.78° C | 79% | 1011.2 hPa | 0 mm | - | - | - |
| 1777986757 | 18.33° C | 77% | 1011.2 hPa | 0 mm | - | - | - |
| 1777986397 | 18.33° C | 77% | 1011.3 hPa | 0 mm | - | - | - |
| 1777986037 | 17.78° C | 77% | 1011.4 hPa | 0 mm | - | - | - |
| 1777985677 | 17.78° C | 79% | 1011.4 hPa | 0 mm | - | - | - |
| 1777985317 | 17.22° C | 81% | 1011.6 hPa | 0 mm | - | - | - |
| 1777984957 | 17.78° C | 80% | 1011.6 hPa | 0 mm | - | - | - |
| 1777984597 | 17.78° C | 82% | 1011.5 hPa | 0 mm | - | - | - |
* Rain latest 24 hours (hover to see other rain measurements)
** Current wind speed in m/s (hover to see current wind gust speed)